South Channel Island, Victoria

7:35 PM AEST on October 02, 2014 (GMT +1000)
Blairgowrie | Change Station
CLOSE
Current Station
Personal Weather Station
Location: Blairgowrie, VICTORIA
Elevation: 36 ft
Nearby Weather Stations

Elev 36 ft 38.37 °S, 144.79 °E | Updated 50 seconds ago

Overcast
Overcast
54.5 °F
Feels Like 54.5 °F
N
5.0
Wind Variable Wind from SE
Gusts 8.0 mph

Today
High -- | Low -- °F
--% Chance of Precip.
Yesterday
High -- | Low -- °F
Precip. -- in
5:55 AM 6:25 PM
First Quarter, 57% visible
Pressure 30.21 in
Visibility 6.2 miles
Clouds Scattered Clouds 3700 ft
Overcast 4300 ft
Dew Point 53 °F
Humidity 94%
Rainfall 0.00 in
Snow Depth Not available.
UV 0.0 out of 12
Pollen Not available.
Air Quality Not available.
Flu Activity Not available.
METAR YMAV 020900Z AUTO 25010KT 9999 // SCT037 OVC043 14/10 Q1023

More Conditions Fewer Conditions

Pressure 30.21 in
Visibility 6.2 miles
Clouds Scattered Clouds 3700 ft
Overcast 4300 ft
Dew Point 53 °F
Humidity 94%
Rainfall 0.00 in
Snow Depth Not available.
UV 0.0 out of 12
Pollen Not available.
Air Quality Not available.
Flu Activity Not available.
METAR YMAV 020900Z AUTO 25010KT 9999 // SCT037 OVC043 14/10 Q1023

More Conditions Fewer Conditions

10-Day Weather Forecast

Almanac

Astronomy

Oct. 02, 2014 Rise Set
Actual Time 5:55 AM AEST 6:25 PM AEST
Civil Twilight 5:28 AM AEST 6:52 PM AEST
Nautical Twilight 4:57 AM AEST 7:23 PM AEST
Astronomical Twilight 4:25 AM AEST 7:55 PM AEST
Moon 11:31 AM AEST 1:04 AM AEST
Length of Visible Light 13h 23m
Length of Day
12h 30m
Tomorrow will be 2m 28s longer.
First Quarter, 57% of the Moon is Illuminated
Today
First Quarter
Oct 8
Full
Oct 15
Last Quarter
Oct 23
New
Oct 30
First Quarter

Yesterday's Extremes

Country Highs Country Lows

Community

WunderPhotos

Upload Photos

1,758,206 photos uploaded!

WunderBlogs® & News

By Dr. Jeff Masters
Director of Meteorology, Weather Underground
By Kari Strenfel
Meteorologist, Weather Underground
By Christopher C. Burt
Weather Historian, Weather Underground
October 2, 2014
October 2, 2014
October 2, 2014

Nearby

Snow Depth

Not available.

Earthquake Activity

City Distance Mag. Time & Date
No recent earthquake activity has been reported nearby.
Minimum magnitude displayed is 2.5.

Coastal Water Temperatures

Place Temperature
No Stations Reporting

Nearby Weather Stations